Terminal Aerodrome Forecast
Issued by NWS Wilmington, OH

Current Version | Previous Version | Graphics & Text | Print | Product List | Glossary On
Versions: 1 2 3 4 5 6 7 8 9 10 11 12 13 14 15 16 17 18 19 20 21 22
029
FTUS41 KILN 232334
TAFDAY
TAF
KDAY 232334Z 2400/2424 20006KT P6SM VCSH BKN045 OVC060
     FM240200 18007KT P6SM SCT050 OVC070
     FM241100 18013G18KT P6SM SCT050
     FM241500 19015G25KT P6SM BKN050
     FM242300 19015G25KT P6SM -SHRA VCTS SCT030CB OVC060=

USA.gov is the U.S. government's official web portal to all federal, state and local government web resources and services.